createdAt,value
2018-08-04T00:01:56.148Z,17.33
2018-08-04T00:04:24.771Z,19.30
2018-08-04T00:06:53.602Z,17.77
2018-08-04T00:09:22.291Z,18.70
2018-08-04T00:11:51.039Z,21.70
2018-08-04T00:14:19.773Z,18.40
2018-08-04T00:16:48.497Z,20.57
2018-08-04T00:19:17.127Z,18.50
2018-08-04T00:21:45.883Z,19.40
2018-08-04T00:24:14.593Z,20.00
2018-08-04T00:26:43.207Z,18.63
2018-08-04T00:29:11.894Z,18.27
2018-08-04T00:31:40.542Z,18.17
2018-08-04T00:34:09.353Z,17.53
2018-08-04T00:36:38.083Z,20.67
2018-08-04T00:39:07.683Z,20.77
2018-08-04T00:41:36.354Z,20.57
2018-08-04T00:44:05.010Z,21.13
2018-08-04T00:46:33.682Z,19.10
2018-08-04T00:49:02.361Z,19.30
2018-08-04T00:51:31.094Z,19.53
2018-08-04T00:53:59.830Z,20.70
2018-08-04T00:56:28.521Z,26.30
2018-08-04T00:58:57.090Z,21.90
2018-08-04T01:01:25.682Z,21.57
2018-08-04T01:03:54.646Z,20.63
2018-08-04T01:06:23.303Z,21.57
2018-08-04T01:08:52.074Z,19.50
2018-08-04T01:11:20.801Z,18.83
2018-08-04T01:13:49.591Z,19.77
2018-08-04T01:16:18.243Z,20.13
2018-08-04T01:18:46.923Z,19.33
2018-08-04T01:21:15.524Z,19.53
2018-08-04T01:23:44.268Z,19.47
2018-08-04T01:26:13.040Z,22.20
2018-08-04T01:28:41.687Z,19.67
2018-08-04T01:31:10.407Z,20.40
2018-08-04T01:33:39.009Z,23.60
2018-08-04T01:36:07.712Z,22.13
2018-08-04T01:38:36.320Z,22.40
2018-08-04T01:41:05.017Z,20.23
2018-08-04T01:43:33.679Z,23.40
2018-08-04T01:46:02.464Z,23.03
2018-08-04T01:48:31.180Z,21.93
2018-08-04T01:50:59.986Z,22.00
2018-08-04T01:53:28.659Z,21.33
2018-08-04T01:55:57.406Z,21.77
2018-08-04T01:58:26.165Z,22.03
2018-08-04T02:00:54.824Z,20.20
2018-08-04T02:03:23.542Z,20.13
2018-08-04T02:05:52.248Z,22.50
2018-08-04T02:08:20.990Z,20.37
2018-08-04T02:10:49.750Z,20.40
2018-08-04T02:13:18.523Z,21.07
2018-08-04T02:15:47.255Z,23.73
2018-08-04T02:18:15.989Z,20.33
2018-08-04T02:20:44.640Z,21.00
2018-08-04T02:23:13.278Z,20.67
2018-08-04T02:25:41.955Z,20.83
2018-08-04T02:28:10.712Z,20.00
2018-08-04T02:30:39.431Z,20.97
2018-08-04T02:33:08.165Z,20.73
2018-08-04T02:35:36.905Z,21.57
2018-08-04T02:38:05.636Z,21.37
2018-08-04T02:40:34.287Z,21.57
2018-08-04T02:43:02.970Z,22.70
2018-08-04T02:45:43.198Z,20.57
2018-08-04T02:48:11.992Z,21.30
2018-08-04T02:50:40.663Z,21.03
2018-08-04T02:53:09.401Z,21.27
2018-08-04T02:55:38.062Z,22.03
2018-08-04T02:58:06.698Z,23.97
2018-08-04T03:00:35.299Z,23.20
2018-08-04T03:03:04.045Z,27.80
2018-08-04T03:05:32.694Z,24.37
2018-08-04T03:08:01.474Z,22.87
2018-08-04T03:10:30.172Z,25.50
2018-08-04T03:12:58.781Z,24.23
2018-08-04T03:15:27.505Z,21.87
2018-08-04T03:17:56.098Z,25.67
2018-08-04T03:20:24.775Z,23.37
2018-08-04T03:22:53.470Z,22.17
2018-08-04T03:25:22.114Z,23.00
2018-08-04T03:27:50.802Z,21.40
2018-08-04T03:30:19.450Z,22.80
2018-08-04T03:32:48.133Z,22.40
2018-08-04T03:35:16.940Z,23.20
2018-08-04T03:37:45.663Z,24.17
2018-08-04T03:40:14.315Z,24.37
2018-08-04T03:42:42.992Z,24.17
2018-08-04T03:45:11.766Z,22.37
2018-08-04T03:47:40.458Z,26.37
2018-08-04T03:50:09.130Z,23.90
2018-08-04T03:52:37.822Z,22.80
2018-08-04T03:55:06.827Z,24.90
2018-08-04T03:57:35.633Z,23.83
2018-08-04T04:00:05.677Z,23.80
2018-08-04T04:02:34.287Z,26.23
2018-08-04T04:05:03.185Z,22.70
2018-08-04T04:07:31.966Z,25.70
2018-08-04T04:10:00.709Z,24.00
2018-08-04T04:12:29.406Z,22.40
2018-08-04T04:14:58.109Z,22.57
2018-08-04T04:17:26.800Z,24.90
2018-08-04T04:19:55.448Z,22.40
2018-08-04T04:22:24.108Z,23.23
2018-08-04T04:24:52.662Z,23.30
2018-08-04T04:27:21.341Z,24.47
2018-08-04T04:32:47.575Z,24.03
2018-08-04T04:35:16.235Z,26.13
2018-08-04T04:37:44.926Z,24.30
2018-08-04T04:40:13.592Z,22.63
2018-08-04T04:42:42.249Z,22.23
2018-08-04T04:45:11.049Z,20.13
2018-08-04T04:47:39.760Z,25.17
2018-08-04T04:50:08.678Z,21.33
2018-08-04T04:52:37.438Z,20.83
2018-08-04T04:55:06.446Z,19.73
2018-08-04T04:57:38.497Z,21.93
2018-08-04T05:00:07.255Z,19.83
2018-08-04T05:02:36.020Z,21.30
2018-08-04T05:05:12.002Z,20.03
2018-08-04T05:07:40.762Z,20.17
2018-08-04T05:10:10.607Z,20.80
2018-08-04T05:12:39.384Z,24.60
2018-08-04T05:15:08.795Z,21.10
2018-08-04T05:17:37.479Z,20.30
2018-08-04T05:20:06.708Z,19.80
2018-08-04T05:22:35.411Z,19.13
2018-08-04T05:25:04.182Z,20.33
2018-08-04T05:27:33.138Z,20.87
2018-08-04T05:30:02.078Z,22.77
2018-08-04T05:32:31.052Z,19.23
2018-08-04T05:34:59.909Z,21.10
2018-08-04T05:37:28.680Z,20.10
2018-08-04T05:39:57.367Z,21.50
2018-08-04T05:42:25.999Z,21.30
2018-08-04T05:44:54.592Z,21.47
2018-08-04T05:47:23.359Z,22.73
2018-08-04T05:49:52.114Z,20.90
2018-08-04T05:52:20.828Z,19.20
2018-08-04T05:54:49.521Z,16.10
2018-08-04T05:57:18.122Z,16.60
2018-08-04T06:00:09.194Z,16.90
2018-08-04T06:02:37.496Z,19.10
2018-08-04T06:05:06.402Z,16.10
2018-08-04T06:07:35.216Z,15.87
2018-08-04T06:10:04.082Z,19.13
2018-08-04T06:12:32.932Z,18.93
2018-08-04T06:15:01.660Z,17.50
2018-08-04T06:17:30.438Z,16.77
2018-08-04T06:19:59.186Z,17.53
2018-08-04T06:22:27.921Z,16.53
2018-08-04T06:24:56.591Z,17.67
2018-08-04T06:27:25.410Z,16.80
2018-08-04T06:30:03.780Z,16.17
2018-08-04T06:32:32.432Z,16.90
2018-08-04T06:35:01.271Z,16.77
2018-08-04T06:37:29.956Z,16.07
2018-08-04T06:39:58.694Z,17.30
2018-08-04T06:42:27.415Z,15.80
2018-08-04T06:44:56.106Z,18.00
2018-08-04T06:47:24.770Z,15.87
2018-08-04T06:49:53.446Z,17.27
2018-08-04T06:52:22.267Z,15.13
2018-08-04T06:54:53.926Z,17.70
2018-08-04T06:57:22.634Z,16.13
2018-08-04T06:59:51.240Z,15.10
2018-08-04T07:02:19.854Z,13.80
2018-08-04T07:04:48.459Z,14.73
2018-08-04T07:07:17.240Z,17.10
2018-08-04T07:09:46.019Z,13.93
2018-08-04T07:12:14.691Z,13.70
2018-08-04T07:14:43.346Z,14.63
2018-08-04T07:17:14.511Z,12.77
2018-08-04T07:19:43.102Z,14.80
2018-08-04T07:22:11.809Z,14.47
2018-08-04T07:24:40.468Z,14.47
2018-08-04T07:27:09.106Z,14.80
2018-08-04T07:29:37.830Z,14.83
2018-08-04T07:32:06.636Z,12.10
2018-08-04T07:34:35.336Z,13.00
2018-08-04T07:37:04.113Z,15.50
2018-08-04T07:39:32.409Z,13.50
2018-08-04T07:42:00.976Z,12.80
2018-08-04T07:44:29.543Z,13.60
2018-08-04T07:46:58.136Z,12.33
2018-08-04T07:49:26.436Z,11.87
2018-08-04T07:51:55.058Z,11.27
2018-08-04T07:54:23.652Z,11.47
2018-08-04T07:56:52.262Z,12.07
2018-08-04T07:59:20.855Z,14.17
2018-08-04T08:01:49.456Z,10.63
2018-08-04T08:04:18.123Z,10.57
2018-08-04T08:06:46.785Z,11.77
2018-08-04T08:09:15.363Z,10.90
2018-08-04T08:11:43.984Z,9.77
2018-08-04T08:14:12.661Z,14.07
2018-08-04T08:16:41.289Z,9.87
2018-08-04T08:19:10.395Z,9.07
2018-08-04T08:21:39.080Z,8.47
2018-08-04T08:24:07.834Z,7.97
2018-08-04T08:26:36.458Z,9.83
2018-08-04T08:29:05.083Z,8.07
2018-08-04T08:31:33.682Z,8.20
2018-08-04T08:34:02.411Z,8.80
2018-08-04T08:36:31.058Z,7.77
2018-08-04T08:38:59.677Z,8.00
2018-08-04T08:41:28.304Z,8.03
2018-08-04T08:43:57.044Z,7.60
2018-08-04T08:46:25.665Z,7.63
2018-08-04T08:48:54.285Z,6.90
2018-08-04T08:51:22.901Z,8.20
2018-08-04T08:53:51.523Z,7.67
2018-08-04T08:56:20.197Z,8.50
2018-08-04T08:58:48.774Z,7.40
2018-08-04T09:01:17.486Z,8.00
2018-08-04T09:06:45.311Z,7.37
2018-08-04T09:09:14.021Z,7.00
2018-08-04T09:11:42.601Z,7.30
2018-08-04T09:14:11.242Z,6.43
2018-08-04T09:16:39.826Z,6.63
2018-08-04T09:19:08.529Z,6.53
2018-08-04T09:21:37.146Z,7.17
2018-08-04T09:24:05.702Z,7.27
2018-08-04T09:26:34.353Z,5.90
2018-08-04T09:32:29.739Z,6.57
2018-08-04T09:44:54.881Z,6.10
2018-08-04T09:50:26.009Z,6.07
2018-08-04T09:52:54.457Z,5.63
2018-08-04T09:55:22.965Z,7.20
2018-08-04T09:57:51.456Z,6.03
2018-08-04T10:00:25.358Z,5.90
2018-08-04T10:02:53.818Z,5.87
2018-08-04T10:05:22.327Z,11.13
2018-08-04T10:07:50.773Z,5.40
2018-08-04T10:10:19.251Z,5.40
2018-08-04T10:12:47.705Z,5.50
2018-08-04T10:15:16.215Z,6.53
2018-08-04T10:17:44.697Z,6.00
2018-08-04T10:20:13.172Z,5.67
2018-08-04T10:22:41.641Z,6.33
2018-08-04T10:25:22.112Z,5.20
2018-08-04T10:27:50.626Z,5.80
2018-08-04T10:30:19.186Z,6.23
2018-08-04T10:32:47.828Z,5.70
2018-08-04T10:35:16.377Z,5.80
2018-08-04T10:37:45.042Z,4.90
2018-08-04T10:40:13.637Z,5.20
2018-08-04T10:42:42.238Z,5.73
2018-08-04T10:45:10.862Z,4.47
2018-08-04T10:47:39.619Z,5.07
2018-08-04T10:50:08.328Z,6.47
2018-08-04T10:52:36.963Z,4.00
2018-08-04T10:55:05.761Z,4.30
2018-08-04T10:57:34.337Z,4.60
2018-08-04T11:00:02.912Z,5.03
2018-08-04T11:02:31.598Z,4.70
2018-08-04T11:10:45.453Z,5.40
2018-08-04T11:13:14.192Z,5.37
2018-08-04T11:15:46.155Z,4.90
2018-08-04T11:18:32.781Z,5.37
2018-08-04T11:21:02.079Z,4.93
2018-08-04T11:23:31.316Z,7.03
2018-08-04T11:25:59.952Z,4.70
2018-08-04T11:28:28.614Z,4.83
2018-08-04T11:30:57.403Z,5.40
2018-08-04T11:33:29.387Z,5.70
2018-08-04T11:41:43.106Z,10.60
2018-08-04T11:49:59.272Z,6.73
2018-08-04T11:52:27.833Z,6.50
2018-08-04T11:54:56.526Z,5.67
2018-08-04T11:57:25.163Z,4.80
2018-08-04T11:59:53.783Z,5.00
2018-08-04T12:02:22.370Z,6.30
2018-08-04T12:04:50.997Z,5.40
2018-08-04T12:07:19.634Z,5.10
2018-08-04T12:09:48.263Z,5.53
2018-08-04T12:12:16.942Z,5.17
2018-08-04T12:14:45.567Z,4.90
2018-08-04T12:17:14.220Z,4.57
2018-08-04T12:19:42.782Z,4.80
2018-08-04T12:22:11.479Z,4.80
2018-08-04T12:24:40.084Z,4.97
2018-08-04T12:27:08.747Z,6.83
2018-08-04T12:29:37.298Z,5.20
2018-08-04T12:32:06.174Z,5.10
2018-08-04T12:34:41.364Z,4.97
2018-08-04T12:37:10.040Z,4.60
2018-08-04T12:39:38.642Z,5.97
2018-08-04T12:42:07.298Z,4.90
2018-08-04T12:44:35.891Z,4.27
2018-08-04T12:47:04.631Z,4.80
2018-08-04T12:49:33.305Z,4.20
2018-08-04T12:52:01.901Z,4.17
2018-08-04T12:54:30.490Z,4.47
2018-08-04T12:56:59.098Z,4.50
2018-08-04T12:59:38.289Z,4.47
2018-08-04T13:02:07.662Z,4.83
2018-08-04T13:04:36.263Z,5.63
2018-08-04T13:07:04.941Z,5.10
2018-08-04T13:09:33.526Z,5.27
2018-08-04T13:12:04.303Z,5.00
2018-08-04T13:14:32.874Z,5.97
2018-08-04T13:17:01.498Z,5.10
2018-08-04T13:19:30.255Z,4.33
2018-08-04T13:21:58.842Z,4.60
2018-08-04T13:24:27.390Z,4.90
2018-08-04T13:26:56.805Z,5.33
2018-08-04T13:29:25.385Z,4.90
2018-08-04T13:31:53.829Z,5.13
2018-08-04T13:34:22.366Z,5.00
2018-08-04T13:36:50.877Z,5.70
2018-08-04T13:39:19.328Z,5.10
2018-08-04T13:41:47.808Z,4.73
2018-08-04T13:44:16.255Z,4.70
2018-08-04T13:46:44.764Z,5.10
2018-08-04T13:49:13.253Z,7.23
2018-08-04T13:52:00.837Z,5.23
2018-08-04T13:54:29.285Z,4.60
2018-08-04T13:56:57.838Z,4.73
2018-08-04T13:59:26.316Z,4.90
2018-08-04T14:01:54.781Z,4.73
2018-08-04T14:04:23.572Z,6.33
2018-08-04T14:06:52.066Z,4.80
2018-08-04T14:09:20.562Z,6.03
2018-08-04T14:11:49.188Z,4.90
2018-08-04T14:14:17.750Z,5.10
2018-08-04T14:16:46.353Z,5.33
2018-08-04T14:19:14.943Z,7.33
2018-08-04T14:21:43.621Z,6.23
2018-08-04T14:24:12.191Z,5.73
2018-08-04T14:26:40.870Z,6.77
2018-08-04T14:29:09.608Z,5.70
2018-08-04T14:31:38.298Z,6.07
2018-08-04T14:34:17.798Z,6.80
2018-08-04T14:36:46.438Z,5.90
2018-08-04T14:39:15.064Z,7.97
2018-08-04T14:41:43.711Z,5.40
2018-08-04T14:44:12.402Z,5.57
2018-08-04T14:46:41.050Z,6.30
2018-08-04T14:49:10.478Z,5.47
2018-08-04T14:51:39.170Z,5.73
2018-08-04T14:54:07.833Z,5.40
2018-08-04T14:56:36.379Z,6.57
2018-08-04T14:59:05.304Z,5.50
2018-08-04T15:01:34.101Z,6.70
2018-08-04T15:04:02.743Z,7.60
2018-08-04T15:06:45.898Z,5.67
2018-08-04T15:09:14.577Z,6.17
2018-08-04T15:11:43.159Z,5.67
2018-08-04T15:14:11.828Z,5.93
2018-08-04T15:16:40.452Z,5.67
2018-08-04T15:19:11.155Z,6.10
2018-08-04T15:21:39.825Z,5.90
2018-08-04T15:24:08.424Z,5.80
2018-08-04T15:26:37.021Z,6.23
2018-08-04T15:29:05.742Z,6.10
2018-08-04T15:31:34.377Z,6.33
2018-08-04T15:34:03.052Z,7.57
2018-08-04T15:36:31.590Z,5.90
2018-08-04T15:39:00.310Z,5.53
2018-08-04T15:41:29.039Z,6.07
2018-08-04T15:43:57.714Z,6.17
2018-08-04T15:46:26.398Z,6.77
2018-08-04T15:48:55.082Z,6.57
2018-08-04T15:51:23.766Z,6.40
2018-08-04T15:53:52.370Z,6.57
2018-08-04T15:56:21.122Z,7.13
2018-08-04T15:58:49.904Z,7.17
2018-08-04T16:01:18.481Z,6.77
2018-08-04T16:03:47.202Z,6.50
2018-08-04T16:06:15.808Z,6.87
2018-08-04T16:08:44.471Z,6.27
2018-08-04T16:11:13.039Z,6.60
2018-08-04T16:13:41.687Z,5.70
2018-08-04T16:16:10.310Z,6.30
2018-08-04T16:18:38.618Z,5.93
2018-08-04T16:21:07.255Z,6.93
2018-08-04T16:23:35.875Z,7.07
2018-08-04T16:26:04.650Z,6.83
2018-08-04T16:28:33.245Z,6.07
2018-08-04T16:31:01.900Z,7.30
2018-08-04T16:39:31.295Z,6.50
2018-08-04T16:42:00.049Z,6.20
2018-08-04T16:44:28.775Z,6.50
2018-08-04T16:46:57.481Z,6.50
2018-08-04T16:49:42.617Z,7.03
2018-08-04T16:52:11.278Z,6.03
2018-08-04T16:54:42.114Z,6.80
2018-08-04T16:57:10.870Z,7.53
2018-08-04T16:59:39.588Z,6.40
2018-08-04T17:02:08.306Z,7.40
2018-08-04T17:04:37.023Z,8.63
2018-08-04T17:07:05.730Z,7.57
2018-08-04T17:09:34.417Z,8.47
2018-08-04T17:12:03.117Z,7.60
2018-08-04T17:14:31.784Z,8.40
2018-08-04T17:17:00.747Z,8.67
2018-08-04T17:19:29.546Z,11.10
2018-08-04T17:21:58.193Z,8.77
2018-08-04T17:24:26.873Z,12.37
2018-08-04T17:26:56.143Z,8.90
2018-08-04T17:29:24.877Z,8.73
2018-08-04T17:31:53.630Z,11.60
2018-08-04T17:34:22.374Z,9.83
2018-08-04T17:36:51.019Z,8.50
2018-08-04T17:39:19.708Z,8.73
2018-08-04T17:41:48.456Z,8.90
2018-08-04T17:44:23.793Z,8.80
2018-08-04T17:46:52.584Z,8.53
2018-08-04T17:49:27.304Z,9.00
2018-08-04T17:51:57.131Z,9.60
2018-08-04T17:54:25.948Z,8.70
2018-08-04T17:56:54.705Z,9.30
2018-08-04T17:59:23.335Z,9.33
2018-08-04T18:01:52.194Z,15.57
2018-08-04T18:04:20.912Z,9.50
2018-08-04T18:06:56.567Z,8.83
2018-08-04T18:09:37.299Z,9.60
2018-08-04T18:12:14.124Z,11.83
2018-08-04T18:14:45.070Z,10.20
2018-08-04T18:17:18.301Z,10.17
2018-08-04T18:19:47.279Z,9.73
2018-08-04T18:22:16.293Z,9.63
2018-08-04T18:24:50.823Z,9.67
2018-08-04T18:27:19.469Z,11.73
2018-08-04T18:29:49.354Z,9.97
2018-08-04T18:32:18.010Z,9.47
2018-08-04T18:34:46.835Z,9.10
2018-08-04T18:37:15.623Z,9.97
2018-08-04T18:40:04.008Z,10.00
2018-08-04T18:42:34.851Z,10.77
2018-08-04T18:45:03.781Z,13.83
2018-08-04T18:47:35.929Z,9.77
2018-08-04T18:50:05.091Z,9.73
2018-08-04T18:52:33.759Z,9.90
2018-08-04T18:55:02.566Z,10.37
2018-08-04T18:57:41.103Z,10.70
2018-08-04T19:00:09.826Z,10.57
2018-08-04T19:02:38.654Z,11.50
2018-08-04T19:05:07.340Z,12.80
2018-08-04T19:07:37.322Z,11.30
2018-08-04T19:10:06.213Z,12.30
2018-08-04T19:12:35.931Z,11.70
2018-08-04T19:15:04.887Z,11.27
2018-08-04T19:17:33.572Z,12.47
2018-08-04T19:20:02.388Z,14.33
2018-08-04T19:22:31.196Z,11.73
2018-08-04T19:24:59.812Z,13.20
2018-08-04T19:27:28.520Z,13.87
2018-08-04T19:29:59.359Z,15.27
2018-08-04T19:32:28.171Z,12.63
2018-08-04T19:34:56.863Z,11.83
2018-08-04T19:37:26.315Z,12.80
2018-08-04T19:39:55.202Z,11.77
2018-08-04T19:42:23.966Z,12.53
2018-08-04T19:44:52.693Z,14.07
2018-08-04T19:47:22.455Z,11.60
2018-08-04T19:49:51.220Z,13.00
2018-08-04T19:52:20.020Z,12.70
2018-08-04T19:54:48.779Z,11.93
2018-08-04T19:57:17.590Z,16.03
2018-08-04T19:59:46.157Z,12.60
2018-08-04T20:02:14.872Z,12.63
2018-08-04T20:04:43.612Z,15.63
2018-08-04T20:07:12.391Z,12.17
2018-08-04T20:09:41.052Z,13.00
2018-08-04T20:12:09.750Z,17.83
2018-08-04T20:14:38.614Z,15.57
2018-08-04T20:17:07.466Z,13.00
2018-08-04T20:19:37.947Z,16.30
2018-08-04T20:22:13.238Z,10.30
2018-08-04T20:24:42.038Z,12.50
2018-08-04T20:27:10.750Z,15.50
2018-08-04T20:29:49.923Z,12.83
2018-08-04T20:32:18.648Z,10.60
2018-08-04T20:34:47.418Z,12.60
2018-08-04T20:37:16.042Z,11.13
2018-08-04T20:39:44.693Z,11.87
2018-08-04T20:42:13.460Z,11.70
2018-08-04T20:44:42.236Z,11.60
2018-08-04T20:47:10.893Z,11.30
2018-08-04T20:49:39.615Z,11.73
2018-08-04T20:52:08.362Z,12.00
2018-08-04T20:54:37.073Z,11.43
2018-08-04T20:57:05.946Z,12.57
2018-08-04T20:59:34.717Z,11.10
2018-08-04T21:02:04.626Z,12.70
2018-08-04T21:04:34.519Z,11.30
2018-08-04T21:07:04.121Z,17.60
2018-08-04T21:09:33.082Z,12.13
2018-08-04T21:12:01.925Z,11.73
2018-08-04T21:14:30.971Z,13.40
2018-08-04T21:17:00.260Z,11.20
2018-08-04T21:19:29.176Z,12.90
2018-08-04T21:21:57.942Z,12.70
2018-08-04T21:24:27.311Z,12.60
2018-08-04T21:26:56.538Z,12.97
2018-08-04T21:29:25.369Z,12.80
2018-08-04T21:31:54.085Z,14.03
2018-08-04T21:34:22.730Z,12.90
2018-08-04T21:36:52.382Z,12.10
2018-08-04T21:39:21.182Z,14.00
2018-08-04T21:41:49.950Z,11.50
2018-08-04T21:44:18.610Z,12.37
2018-08-04T21:46:49.918Z,14.03
2018-08-04T21:49:19.049Z,12.87
2018-08-04T21:51:48.753Z,16.37
2018-08-04T21:54:19.916Z,16.80
2018-08-04T21:56:47.344Z,12.47
2018-08-04T21:59:16.082Z,12.20
2018-08-04T22:01:50.100Z,12.33
2018-08-04T22:04:18.676Z,14.23
2018-08-04T22:07:56.012Z,12.03
2018-08-04T22:10:24.651Z,12.13
2018-08-04T22:12:53.440Z,13.07
2018-08-04T22:15:22.097Z,12.50
2018-08-04T22:17:50.808Z,11.93
2018-08-04T22:20:20.729Z,13.10
2018-08-04T22:22:49.739Z,16.03
2018-08-04T22:28:24.078Z,14.13
2018-08-04T22:30:52.801Z,13.57
2018-08-04T22:33:21.600Z,12.43
2018-08-04T22:35:50.289Z,14.87
2018-08-04T22:38:19.020Z,12.97
2018-08-04T22:40:47.650Z,12.80
2018-08-04T22:43:16.436Z,12.53
2018-08-04T22:46:09.904Z,11.67
2018-08-04T22:48:38.734Z,12.40
2018-08-04T22:51:07.672Z,14.77
2018-08-04T22:53:36.461Z,12.47
2018-08-04T22:56:05.281Z,13.07
2018-08-04T22:58:33.994Z,14.60
2018-08-04T23:01:02.702Z,12.93
2018-08-04T23:03:31.457Z,13.10
2018-08-04T23:06:00.191Z,12.07
2018-08-04T23:08:29.010Z,12.30
2018-08-04T23:10:57.763Z,12.40
2018-08-04T23:13:26.559Z,21.43
2018-08-04T23:15:55.312Z,12.90
2018-08-04T23:18:24.065Z,13.73
2018-08-04T23:20:52.814Z,12.87
2018-08-04T23:23:21.565Z,13.60
2018-08-04T23:25:50.331Z,15.50
2018-08-04T23:28:19.009Z,13.27
2018-08-04T23:30:47.657Z,14.37
2018-08-04T23:33:16.453Z,14.27
2018-08-04T23:35:45.114Z,16.07
2018-08-04T23:38:13.811Z,13.87
2018-08-04T23:40:42.548Z,14.70
2018-08-04T23:43:11.139Z,14.37
2018-08-04T23:45:39.750Z,15.20
2018-08-04T23:48:08.026Z,14.00
2018-08-04T23:50:36.717Z,16.97
2018-08-04T23:53:05.413Z,18.93
2018-08-04T23:55:34.187Z,15.40
2018-08-04T23:58:02.749Z,13.90
